^^
Paulen-Weather Station Historical Data
Daily Summary for June 29, 2022 Units:  Metric    English   Both
Daily Weekly Monthly Yearly Custom
  High: Low: Average:
Temperature: 18 °C 12 °C 14.4 °C
Dew Point: 15 °C 10 °C 11.5 °C
Humidity: 88% 72% 83%
Wind Speed: 13km/h 0km/h 7.1km/h
Wind Gust: 12km/h - -
Wind- - WSW
Pressure: 1019.95 hPa 1019.2 hPa -
Precipitation: 0 mm    
Historical Graphs
 
 
Tabular Data for June 29, 2022
Time Temperature Dew Point Pressure Wind Wind Speed Wind Gust Humidity Rainfall Rate (Hourly) solar
00:04 14 °C 11 °C 1019.88 hPa WSW 5 km/h 3 km/h 83% 0 mm 0 W/m2
00:09 14 °C 11 °C 1019.95 hPa WSW 5 km/h 4 km/h 83% 0 mm 0 W/m2
00:14 14 °C 11 °C 1019.95 hPa WSW 5 km/h 3 km/h 84% 0 mm 0 W/m2
00:19 14 °C 11 °C 1019.91 hPa WSW 4 km/h 3 km/h 84% 0 mm 0 W/m2
00:24 14 °C 11 °C 1019.91 hPa W 3 km/h 2 km/h 84% 0 mm 0 W/m2
00:29 13 °C 11 °C 1019.95 hPa WSW 2 km/h 1 km/h 84% 0 mm 0 W/m2
00:34 13 °C 11 °C 1019.95 hPa WSW 3 km/h 2 km/h 84% 0 mm 0 W/m2
00:39 13 °C 11 °C 1019.84 hPa WSW 3 km/h 2 km/h 84% 0 mm 0 W/m2
00:44 13 °C 10 °C 1019.74 hPa WSW 3 km/h 1 km/h 84% 0 mm 0 W/m2
00:49 13 °C 10 °C 1019.78 hPa WSW 2 km/h 1 km/h 84% 0 mm 0 W/m2
00:54 13 °C 10 °C 1019.78 hPa WSW 2 km/h   84% 0 mm 0 W/m2
00:59 13 °C 10 °C 1019.74 hPa WNW 1 km/h   84% 0 mm 0 W/m2
01:04 13 °C 10 °C 1019.78 hPa Calm     84% 0 mm 0 W/m2
01:09 13 °C 10 °C 1019.78 hPa Calm     84% 0 mm 0 W/m2
01:14 13 °C 10 °C 1019.78 hPa WSW 1 km/h 1 km/h 84% 0 mm 0 W/m2
01:19 13 °C 10 °C 1019.74 hPa W 2 km/h 1 km/h 84% 0 mm 0 W/m2
01:24 13 °C 10 °C 1019.68 hPa W 1 km/h 1 km/h 84% 0 mm 0 W/m2
01:29 13 °C 10 °C 1019.68 hPa WNW 1 km/h 1 km/h 84% 0 mm 0 W/m2
01:34 13 °C 10 °C 1019.64 hPa WNW 3 km/h 2 km/h 84% 0 mm 0 W/m2
01:39 13 °C 10 °C 1019.68 hPa WNW 3 km/h 2 km/h 84% 0 mm 0 W/m2
01:44 13 °C 10 °C 1019.64 hPa Calm     84% 0 mm 0 W/m2
01:49 13 °C 10 °C 1019.64 hPa Calm     84% 0 mm 0 W/m2
01:54 13 °C 10 °C 1019.64 hPa NW 3 km/h 3 km/h 84% 0 mm 0 W/m2
01:59 13 °C 10 °C 1019.61 hPa NNW 5 km/h 4 km/h 84% 0 mm 0 W/m2
02:04 13 °C 11 °C 1019.57 hPa NNW 6 km/h 5 km/h 85% 0 mm 0 W/m2
02:09 13 °C 11 °C 1019.54 hPa NW 7 km/h 6 km/h 86% 0 mm 0 W/m2
02:14 13 °C 10 °C 1019.54 hPa NW 8 km/h 7 km/h 85% 0 mm 0 W/m2
02:19 13 °C 10 °C 1019.51 hPa NW 7 km/h 7 km/h 84% 0 mm 0 W/m2
02:24 13 °C 10 °C 1019.51 hPa NW 7 km/h 6 km/h 85% 0 mm 0 W/m2
02:29 13 °C 11 °C 1019.54 hPa NW 6 km/h 6 km/h 85% 0 mm 0 W/m2
02:34 13 °C 10 °C 1019.54 hPa NW 6 km/h 5 km/h 85% 0 mm 0 W/m2
02:39 13 °C 10 °C 1019.54 hPa NW 6 km/h 6 km/h 85% 0 mm 0 W/m2
02:44 13 °C 10 °C 1019.54 hPa NW 6 km/h 6 km/h 85% 0 mm 0 W/m2
02:49 13 °C 10 °C 1019.57 hPa NW 6 km/h 5 km/h 85% 0 mm 0 W/m2
02:54 13 °C 10 °C 1019.57 hPa NW 6 km/h 5 km/h 85% 0 mm 0 W/m2
02:59 12 °C 10 °C 1019.64 hPa NW 6 km/h 5 km/h 85% 0 mm 0 W/m2
03:04 12 °C 10 °C 1019.64 hPa NW 6 km/h 5 km/h 85% 0 mm 0 W/m2
03:09 12 °C 10 °C 1019.64 hPa NW 6 km/h 5 km/h 85% 0 mm 0 W/m2
03:14 12 °C 10 °C 1019.64 hPa NW 6 km/h 6 km/h 85% 0 mm 0 W/m2
03:19 12 °C 10 °C 1019.64 hPa NW 6 km/h 6 km/h 85% 0 mm 0 W/m2
03:24 12 °C 10 °C 1019.64 hPa NW 6 km/h 5 km/h 86% 0 mm 0 W/m2
03:29 12 °C 10 °C 1019.68 hPa NNW 6 km/h 6 km/h 86% 0 mm 0 W/m2
03:34 12 °C 10 °C 1019.68 hPa NW 7 km/h 6 km/h 86% 0 mm 0 W/m2
03:39 12 °C 10 °C 1019.61 hPa NW 7 km/h 7 km/h 85% 0 mm 0 W/m2
03:44 12 °C 10 °C 1019.61 hPa NNW 7 km/h 7 km/h 85% 0 mm 0 W/m2
03:49 12 °C 10 °C 1019.61 hPa NNW 8 km/h 7 km/h 86% 0 mm 0 W/m2
03:54 12 °C 10 °C 1019.57 hPa NNW 9 km/h 9 km/h 86% 0 mm 0 W/m2
03:59 12 °C 10 °C 1019.51 hPa NNW 9 km/h 9 km/h 87% 0 mm 0 W/m2
04:04 12 °C 10 °C 1019.51 hPa NNW 10 km/h 9 km/h 87% 0 mm 0 W/m2
04:09 12 °C 10 °C 1019.44 hPa NNW 10 km/h 9 km/h 87% 0 mm 0 W/m2
04:14 12 °C 10 °C 1019.47 hPa NNW 10 km/h 9 km/h 88% 0 mm 0 W/m2
04:19 12 °C 10 °C 1019.44 hPa NNW 11 km/h 11 km/h 87% 0 mm 0 W/m2
04:24 12 °C 10 °C 1019.4 hPa NNW 11 km/h 9 km/h 87% 0 mm 5 W/m2
04:29 12 °C 10 °C 1019.3 hPa NNW 9 km/h 8 km/h 87% 0 mm 5 W/m2
04:34 12 °C 10 °C 1019.27 hPa NNW 9 km/h 8 km/h 87% 0 mm 7 W/m2
04:39 12 °C 10 °C 1019.3 hPa NNW 8 km/h 7 km/h 87% 0 mm 12 W/m2
04:44 12 °C 10 °C 1019.3 hPa NNW 8 km/h 6 km/h 88% 0 mm 16 W/m2
04:49 12 °C 10 °C 1019.2 hPa NNW 7 km/h 6 km/h 87% 0 mm 19 W/m2
04:54 12 °C 10 °C 1019.24 hPa NNW 8 km/h 7 km/h 87% 0 mm 25 W/m2
04:59 12 °C 10 °C 1019.34 hPa NNW 7 km/h 6 km/h 87% 0 mm 30 W/m2
05:04 12 °C 10 °C 1019.47 hPa NNW 7 km/h 7 km/h 87% 0 mm 33 W/m2
05:09 12 °C 10 °C 1019.47 hPa NNW 6 km/h 6 km/h 87% 0 mm 40 W/m2
05:14 12 °C 10 °C 1019.57 hPa NNW 5 km/h 3 km/h 87% 0 mm 47 W/m2
05:19 12 °C 10 °C 1019.64 hPa NNW 4 km/h 4 km/h 86% 0 mm 53 W/m2
05:24 12 °C 10 °C 1019.68 hPa SW 1 km/h 1 km/h 86% 0 mm 62 W/m2
05:29 12 °C 10 °C 1019.71 hPa Calm     86% 0 mm 69 W/m2
05:34 12 °C 10 °C 1019.64 hPa NNW 3 km/h 2 km/h 86% 0 mm 76 W/m2
05:39 12 °C 10 °C 1019.64 hPa N 5 km/h 5 km/h 85% 0 mm 84 W/m2
05:44 13 °C 10 °C 1019.61 hPa N 6 km/h 5 km/h 83% 0 mm 91 W/m2
05:49 13 °C 10 °C 1019.57 hPa NNW 6 km/h 4 km/h 83% 0 mm 98 W/m2
05:54 13 °C 10 °C 1019.68 hPa NNW 5 km/h 5 km/h 84% 0 mm 107 W/m2
05:59 13 °C 10 °C 1019.71 hPa NNW 5 km/h 3 km/h 84% 0 mm 114 W/m2
06:04 13 °C 10 °C 1019.71 hPa NNW 5 km/h 5 km/h 84% 0 mm 123 W/m2
06:09 13 °C 10 °C 1019.71 hPa NNW 6 km/h 5 km/h 84% 0 mm 132 W/m2
06:14 13 °C 10 °C 1019.71 hPa NNW 6 km/h 6 km/h 83% 0 mm 141 W/m2
06:19 13 °C 10 °C 1019.78 hPa NNW 7 km/h 6 km/h 83% 0 mm 148 W/m2
06:24 13 °C 10 °C 1019.81 hPa NNW 8 km/h 8 km/h 83% 0 mm 156 W/m2
06:29 13 °C 10 °C 1019.78 hPa NNW 9 km/h 9 km/h 82% 0 mm 167 W/m2
06:34 13 °C 10 °C 1019.81 hPa NNW 9 km/h 9 km/h 83% 0 mm 176 W/m2
06:39 13 °C 10 °C 1019.84 hPa NNW 8 km/h 7 km/h 83% 0 mm 185 W/m2
06:44 13 °C 10 °C 1019.88 hPa N 7 km/h 6 km/h 83% 0 mm 197 W/m2
06:49 13 °C 10 °C 1019.91 hPa NNW 6 km/h 5 km/h 82% 0 mm 206 W/m2
06:54 13 °C 10 °C 1019.91 hPa NNW 6 km/h 5 km/h 82% 0 mm 214 W/m2
06:59 13 °C 10 °C 1019.91 hPa NNW 7 km/h 7 km/h 81% 0 mm 225 W/m2
07:04 13 °C 10 °C 1019.91 hPa NNW 7 km/h 6 km/h 81% 0 mm 236 W/m2
07:09 14 °C 10 °C 1019.91 hPa N 8 km/h 8 km/h 81% 0 mm 246 W/m2
07:14 14 °C 10 °C 1019.91 hPa N 8 km/h 9 km/h 80% 0 mm 257 W/m2
07:19 14 °C 10 °C 1019.88 hPa N 9 km/h 8 km/h 80% 0 mm 265 W/m2
07:24 14 °C 10 °C 1019.81 hPa N 9 km/h 8 km/h 80% 0 mm 276 W/m2
07:29 14 °C 11 °C 1019.81 hPa N 8 km/h 7 km/h 81% 0 mm 288 W/m2
07:34 14 °C 11 °C 1019.78 hPa N 9 km/h 8 km/h 79% 0 mm 299 W/m2
07:39 14 °C 11 °C 1019.74 hPa N 9 km/h 7 km/h 79% 0 mm 308 W/m2
07:44 14 °C 11 °C 1019.74 hPa N 8 km/h 9 km/h 79% 0 mm 318 W/m2
07:49 15 °C 11 °C 1019.68 hPa N 8 km/h 7 km/h 79% 0 mm 329 W/m2
07:54 15 °C 11 °C 1019.68 hPa N 8 km/h 8 km/h 79% 0 mm 338 W/m2
07:59 15 °C 11 °C 1019.68 hPa N 9 km/h 8 km/h 80% 0 mm 350 W/m2
08:04 15 °C 12 °C 1019.71 hPa N 8 km/h 7 km/h 81% 0 mm 360 W/m2
08:09 15 °C 12 °C 1019.68 hPa N 9 km/h 8 km/h 81% 0 mm 371 W/m2
08:14 15 °C 12 °C 1019.64 hPa N 8 km/h 8 km/h 80% 0 mm 381 W/m2
08:19 15 °C 12 °C 1019.68 hPa N 7 km/h 6 km/h 80% 0 mm 392 W/m2
08:24 15 °C 12 °C 1019.64 hPa N 7 km/h 7 km/h 79% 0 mm 404 W/m2
08:29 16 °C 12 °C 1019.64 hPa N 7 km/h 6 km/h 79% 0 mm 413 W/m2
08:34 16 °C 12 °C 1019.68 hPa NNW 6 km/h 6 km/h 78% 0 mm 422 W/m2
08:39 16 °C 12 °C 1019.71 hPa NNW 6 km/h 5 km/h 78% 0 mm 432 W/m2
08:44 16 °C 12 °C 1019.74 hPa N 5 km/h 4 km/h 77% 0 mm 445 W/m2
08:49 16 °C 12 °C 1019.78 hPa NNW 6 km/h 5 km/h 76% 0 mm 455 W/m2
08:54 16 °C 12 °C 1019.74 hPa NNW 6 km/h 4 km/h 76% 0 mm 464 W/m2
08:59 17 °C 12 °C 1019.71 hPa NNE 5 km/h 3 km/h 76% 0 mm 473 W/m2
09:04 17 °C 12 °C 1019.71 hPa NE 4 km/h 3 km/h 74% 0 mm 483 W/m2
09:09 17 °C 12 °C 1019.71 hPa ENE 6 km/h 5 km/h 72% 0 mm 497 W/m2
09:14 17 °C 12 °C 1019.64 hPa NE 5 km/h 4 km/h 74% 0 mm 506 W/m2
09:19 17 °C 13 °C 1019.68 hPa NE 6 km/h 5 km/h 75% 0 mm 517 W/m2
09:24 17 °C 13 °C 1019.74 hPa NE 5 km/h 5 km/h 75% 0 mm 526 W/m2
09:29 17 °C 13 °C 1019.68 hPa NNE 6 km/h 6 km/h 76% 0 mm 536 W/m2
09:34 17 °C 13 °C 1019.71 hPa ENE 6 km/h 5 km/h 77% 0 mm 545 W/m2
09:39 17 °C 13 °C 1019.71 hPa ENE 6 km/h 5 km/h 78% 0 mm 555 W/m2
09:44 17 °C 13 °C 1019.68 hPa ENE 9 km/h 8 km/h 78% 0 mm 564 W/m2
09:49 17 °C 13 °C 1019.71 hPa ENE 8 km/h 8 km/h 79% 0 mm 571 W/m2
09:54 17 °C 14 °C 1019.68 hPa ENE 9 km/h 7 km/h 80% 0 mm 584 W/m2
09:59 17 °C 14 °C 1019.64 hPa ENE 11 km/h 10 km/h 80% 0 mm 592 W/m2
10:04 17 °C 14 °C 1019.71 hPa E 11 km/h 11 km/h 80% 0 mm 599 W/m2
10:09 17 °C 14 °C 1019.71 hPa E 13 km/h 11 km/h 81% 0 mm 610 W/m2
10:14 17 °C 14 °C 1019.71 hPa E 12 km/h 11 km/h 81% 0 mm 617 W/m2
10:19 17 °C 14 °C 1019.78 hPa E 13 km/h 12 km/h 82% 0 mm 624 W/m2
10:24 17 °C 14 °C 1019.78 hPa ENE 12 km/h 10 km/h 82% 0 mm 633 W/m2
10:29 17 °C 14 °C 1019.74 hPa ENE 10 km/h 9 km/h 82% 0 mm 642 W/m2
10:34 17 °C 14 °C 1019.74 hPa E 10 km/h 9 km/h 82% 0 mm 649 W/m2
10:39 17 °C 14 °C 1019.71 hPa E 10 km/h 8 km/h 82% 0 mm 657 W/m2
10:44 17 °C 14 °C 1019.71 hPa ESE 11 km/h 10 km/h 82% 0 mm 664 W/m2
10:49 17 °C 14 °C 1019.74 hPa E 10 km/h 7 km/h 82% 0 mm 671 W/m2
10:54 17 °C 14 °C 1019.74 hPa E 8 km/h 9 km/h 82% 0 mm 682 W/m2
10:59 18 °C 14 °C 1019.81 hPa SE 9 km/h 8 km/h 81% 0 mm 687 W/m2
11:04 18 °C 14 °C 1019.84 hPa SE 10 km/h 9 km/h 81% 0 mm 694 W/m2
11:09 18 °C 14 °C 1019.84 hPa SE 12 km/h 11 km/h 81% 0 mm 701 W/m2
11:14 17 °C 14 °C 1019.84 hPa SSE 13 km/h 12 km/h 81% 0 mm 707 W/m2
11:19 17 °C 14 °C 1019.88 hPa SSE 11 km/h 9 km/h 82% 0 mm 712 W/m2
11:24 17 °C 14 °C 1019.91 hPa SE 12 km/h 9 km/h 82% 0 mm 721 W/m2
11:29 17 °C 14 °C 1019.91 hPa SSE 12 km/h 12 km/h 82% 0 mm 724 W/m2
11:34 17 °C 14 °C 1019.88 hPa SSE 10 km/h 8 km/h 82% 0 mm 728 W/m2
11:39 18 °C 15 °C 1019.95 hPa SE 12 km/h 9 km/h 83% 0 mm 735 W/m2
11:44 18 °C 15 °C 1019.88 hPa SSE 9 km/h 8 km/h 82% 0 mm 738 W/m2
11:49 18 °C 15 °C 1019.84 hPa SE 10 km/h 11 km/h 82% 0 mm 745 W/m2
11:54 17 °C 14 °C 1019.84 hPa SE 13 km/h 11 km/h 82% 0 mm 749 W/m2
11:59 17 °C 15 °C 1019.78 hPa SE 11 km/h 8 km/h 84% 0 mm 752 W/m2
12:04 18 °C 15 °C 1019.81 hPa SE 9 km/h 7 km/h 83% 0 mm 759 W/m2
12:09 18 °C 15 °C 1019.84 hPa SE 10 km/h 8 km/h 82% 0 mm 765 W/m2
12:14 18 °C 15 °C 1019.88 hPa SE 10 km/h 8 km/h 82% 0 mm 766 W/m2
12:19 18 °C 15 °C 1019.84 hPa SE 11 km/h 9 km/h 82% 0 mm 768 W/m2
12:24 18 °C 15 °C 1019.78 hPa SE 11 km/h 10 km/h 82% 0 mm 773 W/m2
12:29 18 °C 15 °C 1019.78 hPa SE 12 km/h 11 km/h 82% 0 mm 779 W/m2
12:34 18 °C 15 °C 1019.74 hPa SSE 11 km/h 9 km/h 82% 0 mm 780 W/m2
12:39 18 °C 15 °C 1019.71 hPa SE 13 km/h 12 km/h 82% 0 mm 780 W/m2
12:44 17 °C 15 °C 1019.81 hPa SE 11 km/h 9 km/h 82% 0 mm 784 W/m2
12:49 18 °C 15 °C 1019.78 hPa SE 12 km/h 10 km/h 82% 0 mm 788 W/m2
Compliments of Weather Underground - 2 mb